Time;durP1;ratioP1;P1;durP2;ratioP2;P2;SDS_P1;SDS_P2;PMS_P1;PMS_P2;Temp;Humidity;BMP_temperature;BMP_pressure;BME280_temperature;BME280_humidity;BME280_pressure;Samples;Min_cycle;Max_cycle;Signal;HPM_P1;HPM_P2
2023/11/04 00:02:19;;;;;;;10.05;2.90;;;;;;;12.64;100.00;98322.97;5008674;28;20069;-69
2023/11/04 00:04:45;;;;;;;10.38;2.72;;;;;;;12.49;100.00;98300.63;5026634;28;20032;-70
2023/11/04 00:07:11;;;;;;;17.60;3.22;;;;;;;12.46;100.00;98283.91;5011519;28;20056;-69
2023/11/04 00:09:37;;;;;;;11.38;2.85;;;;;;;12.58;100.00;98310.59;5010567;28;20037;-70
2023/11/04 00:12:03;;;;;;;13.50;3.20;;;;;;;12.56;100.00;98303.84;5010139;28;20097;-70
2023/11/04 00:14:28;;;;;;;10.60;3.00;;;;;;;12.50;100.00;98296.84;5011119;28;20120;-70
2023/11/04 00:16:54;;;;;;;8.38;2.40;;;;;;;12.58;100.00;98307.91;5011177;28;20036;-69
2023/11/04 00:19:19;;;;;;;11.52;3.13;;;;;;;12.56;100.00;98301.94;5010019;28;20080;-70
2023/11/04 00:21:45;;;;;;;9.15;3.03;;;;;;;12.53;100.00;98296.28;5010932;28;20045;-69
2023/11/04 00:24:11;;;;;;;7.30;2.58;;;;;;;12.56;100.00;98285.75;5026382;28;20076;-69
2023/11/04 00:26:37;;;;;;;15.27;3.10;;;;;;;12.61;100.00;98288.44;5011036;28;20057;-70
2023/11/04 00:29:03;;;;;;;9.75;3.00;;;;;;;12.57;100.00;98290.06;5026532;28;20030;-70
2023/11/04 00:31:29;;;;;;;6.88;2.40;;;;;;;12.55;100.00;98289.56;5009738;28;20038;-70
2023/11/04 00:33:56;;;;;;;10.55;3.10;;;;;;;12.54;100.00;98270.94;5009829;28;20144;-71
2023/11/04 00:36:21;;;;;;;12.25;2.95;;;;;;;12.58;100.00;98278.22;5009975;28;20034;-70
2023/11/04 00:38:47;;;;;;;12.32;3.22;;;;;;;12.56;100.00;98271.47;5010526;28;20037;-70
2023/11/04 00:41:12;;;;;;;9.90;2.80;;;;;;;12.59;100.00;98274.44;5009959;28;20092;-70
2023/11/04 00:43:37;;;;;;;9.40;3.10;;;;;;;12.60;100.00;98278.72;5011160;28;20037;-70
2023/11/04 00:46:03;;;;;;;9.25;3.20;;;;;;;12.57;100.00;98281.16;5017492;28;20084;-70
2023/11/04 00:48:29;;;;;;;14.00;2.95;;;;;;;12.62;100.00;98278.47;5030409;28;20128;-70
2023/11/04 00:50:54;;;;;;;9.07;3.10;;;;;;;12.62;100.00;98284.69;5013342;28;20053;-70
2023/11/04 00:53:20;;;;;;;9.93;2.53;;;;;;;12.66;100.00;98276.84;5012031;28;20037;-70
2023/11/04 00:55:45;;;;;;;8.63;3.05;;;;;;;12.65;100.00;98272.53;5009143;28;20065;-70
2023/11/04 00:58:11;;;;;;;13.63;3.45;;;;;;;12.63;100.00;98270.09;5011026;28;20428;-70
2023/11/04 01:00:39;;;;;;;9.32;2.88;;;;;;;12.58;100.00;98263.91;5009388;28;20022;-70
2023/11/04 01:03:05;;;;;;;10.38;3.03;;;;;;;12.65;100.00;98259.03;5012436;28;20057;-70
2023/11/04 01:05:30;;;;;;;9.10;2.95;;;;;;;12.61;100.00;98244.47;4996999;28;20571;-70
2023/11/04 01:07:55;;;;;;;11.32;3.25;;;;;;;12.65;100.00;98251.75;5014623;28;20040;-70
2023/11/04 01:10:21;;;;;;;9.43;2.90;;;;;;;12.66;100.00;98252.56;5013408;28;20038;-70
2023/11/04 01:12:46;;;;;;;5.28;2.60;;;;;;;12.65;100.00;98245.56;5040936;28;20116;-70
2023/11/04 01:15:12;;;;;;;8.88;3.08;;;;;;;12.49;100.00;98212.41;5032464;28;20034;-72
2023/11/04 01:17:38;;;;;;;11.60;3.05;;;;;;;12.54;100.00;98219.69;5018492;28;20025;-70
2023/11/04 01:20:05;;;;;;;9.93;3.00;;;;;;;12.61;100.00;98230.97;5013704;28;20424;-70
2023/11/04 01:22:31;;;;;;;8.35;2.92;;;;;;;12.63;100.00;98229.63;5013499;28;20040;-70
2023/11/04 01:24:57;;;;;;;10.82;3.67;;;;;;;12.63;100.00;98237.72;5014566;28;20021;-70
2023/11/04 01:27:23;;;;;;;11.57;2.83;;;;;;;12.64;100.00;98230.44;5030765;28;20496;-71
2023/11/04 01:29:49;;;;;;;8.27;3.00;;;;;;;12.67;100.00;98224.47;5023624;28;20018;-71
2023/11/04 01:32:15;;;;;;;11.90;3.20;;;;;;;12.62;100.00;98219.94;5016679;28;20026;-71
2023/11/04 01:34:40;;;;;;;11.95;3.70;;;;;;;12.52;100.00;98203.78;5016754;28;20605;-70
2023/11/04 01:37:06;;;;;;;10.20;3.30;;;;;;;12.56;100.00;98204.03;5013555;28;20030;-71
2023/11/04 01:39:33;;;;;;;13.13;3.20;;;;;;;12.36;100.00;98199.53;5028224;28;20032;-70
2023/11/04 01:42:07;;;;;;;9.57;3.42;;;;;;;12.14;100.00;98210.63;5014345;28;20030;-70
2023/11/04 01:44:33;;;;;;;8.20;3.03;;;;;;;12.24;100.00;98210.59;4996182;28;20034;-70
2023/11/04 01:47:02;;;;;;;10.65;3.45;;;;;;;12.00;100.00;98191.50;5014234;28;20030;-70
2023/11/04 01:49:29;;;;;;;13.23;4.18;;;;;;;12.08;100.00;98198.22;5013503;28;20072;-70
2023/11/04 01:51:55;;;;;;;12.10;3.45;;;;;;;12.18;100.00;98208.97;5013111;28;20038;-69
2023/11/04 01:54:23;;;;;;;12.07;3.97;;;;;;;12.01;100.00;98219.25;5014066;28;20485;-70
2023/11/04 01:56:48;;;;;;;10.32;3.30;;;;;;;12.27;100.00;98220.84;5029757;28;20500;-70
2023/11/04 01:59:15;;;;;;;12.10;3.75;;;;;;;12.28;100.00;98208.97;5012638;28;20034;-70
2023/11/04 02:01:45;;;;;;;10.70;3.50;;;;;;;12.34;100.00;98223.25;5013786;28;20431;-70
2023/11/04 02:04:12;;;;;;;10.57;4.45;;;;;;;12.32;100.00;98228.13;5013997;28;20022;-70
2023/11/04 02:06:37;;;;;;;16.25;4.28;;;;;;;12.47;100.00;98222.66;5013332;28;20048;-70
2023/11/04 02:09:03;;;;;;;11.90;3.97;;;;;;;12.40;100.00;98222.16;5013497;28;20544;-70
2023/11/04 02:11:28;;;;;;;13.05;4.47;;;;;;;12.27;100.00;98225.41;5013244;28;20033;-70
2023/11/04 02:13:54;;;;;;;12.43;3.55;;;;;;;12.26;100.00;98229.22;5012735;28;20036;-70
2023/11/04 02:16:19;;;;;;;12.23;3.65;;;;;;;12.31;100.00;98240.78;4995904;28;20037;-70
2023/11/04 02:18:44;;;;;;;11.73;3.63;;;;;;;12.39;100.00;98231.34;5013022;28;20097;-70
2023/11/04 02:21:10;;;;;;;9.85;3.65;;;;;;;12.35;100.00;98239.16;5011397;28;20030;-70
2023/11/04 02:23:35;;;;;;;9.52;3.63;;;;;;;12.28;100.00;98208.16;4995208;28;20068;-70
2023/11/04 02:26:01;;;;;;;10.30;3.20;;;;;;;12.42;100.00;98231.59;5012126;28;20030;-70
2023/11/04 02:28:26;;;;;;;14.57;3.47;;;;;;;12.31;100.00;98224.59;5013271;28;20045;-70
2023/11/04 02:30:52;;;;;;;12.23;3.45;;;;;;;12.42;100.00;98236.19;5025855;28;20246;-70
2023/11/04 02:33:17;;;;;;;9.95;3.17;;;;;;;12.42;100.00;98228.91;5013710;28;20037;-70
2023/11/04 02:35:44;;;;;;;9.10;3.45;;;;;;;12.22;100.00;98208.19;5011783;28;20026;-70
2023/11/04 02:38:09;;;;;;;12.45;3.47;;;;;;;12.33;100.00;98222.44;5013434;28;20022;-70
2023/11/04 02:40:35;;;;;;;14.27;3.47;;;;;;;12.29;100.00;98228.66;5011559;28;20030;-70
2023/11/04 02:43:00;;;;;;;12.90;3.80;;;;;;;12.28;100.00;98230.53;5013221;28;20400;-70
2023/11/04 02:45:26;;;;;;;9.18;3.08;;;;;;;12.34;100.00;98226.75;4994760;28;20040;-70
2023/11/04 02:47:51;;;;;;;11.60;3.90;;;;;;;12.36;100.00;98237.28;5012185;28;20034;-70
2023/11/04 02:50:17;;;;;;;14.18;3.58;;;;;;;12.31;100.00;98223.78;5012394;28;20058;-70
2023/11/04 02:52:42;;;;;;;15.57;3.90;;;;;;;12.31;100.00;98231.88;5011323;28;20369;-70
2023/11/04 02:55:08;;;;;;;12.95;3.28;;;;;;;12.38;100.00;98221.59;5012252;28;20029;-70
2023/11/04 02:57:34;;;;;;;10.63;3.78;;;;;;;12.38;100.00;98224.31;5012573;28;20099;-70
2023/11/04 02:59:59;;;;;;;13.00;3.40;;;;;;;12.35;100.00;98230.25;5012764;28;20041;-70
2023/11/04 03:02:24;;;;;;;9.07;3.30;;;;;;;12.31;100.00;98223.78;5011129;28;20113;-70
2023/11/04 03:04:50;;;;;;;12.07;3.83;;;;;;;12.33;100.00;98227.84;5012610;28;20033;-70
2023/11/04 03:07:15;;;;;;;11.50;3.10;;;;;;;12.37;100.00;98228.91;5011179;28;20041;-70
2023/11/04 03:09:41;;;;;;;12.60;3.97;;;;;;;12.41;100.00;98234.53;5011676;28;20030;-70
2023/11/04 03:12:06;;;;;;;11.05;3.22;;;;;;;12.36;100.00;98234.56;5012559;28;20110;-70
2023/11/04 03:14:32;;;;;;;11.75;3.88;;;;;;;12.35;100.00;98230.25;5012229;28;20034;-70
2023/11/04 03:16:57;;;;;;;11.43;3.42;;;;;;;12.39;100.00;98223.25;5011356;28;20037;-70
2023/11/04 03:19:23;;;;;;;10.13;3.15;;;;;;;12.36;100.00;98223.78;5012586;28;20495;-70
2023/11/04 03:21:48;;;;;;;12.07;3.47;;;;;;;12.44;100.00;98231.31;5012473;28;20114;-70
2023/11/04 03:24:14;;;;;;;11.45;3.70;;;;;;;12.44;100.00;98226.72;5010214;28;20116;-70
2023/11/04 03:26:39;;;;;;;16.08;3.40;;;;;;;12.42;100.00;98220.00;5011017;28;20049;-70
2023/11/04 03:29:05;;;;;;;15.98;3.38;;;;;;;12.45;100.00;98230.25;5010158;28;20038;-70
2023/11/04 03:31:31;;;;;;;8.73;2.95;;;;;;;12.48;100.00;98220.78;5011742;28;20109;-70
2023/11/04 03:33:57;;;;;;;9.13;3.08;;;;;;;12.48;100.00;98213.47;5009864;28;20040;-70
2023/11/04 03:36:23;;;;;;;10.48;3.28;;;;;;;12.46;100.00;98210.28;4994330;28;20481;-70
2023/11/04 03:38:48;;;;;;;17.48;3.40;;;;;;;12.27;100.00;98176.88;5011998;28;20432;-70
2023/11/04 03:41:13;;;;;;;15.48;3.50;;;;;;;12.28;100.00;98191.97;5010926;28;20034;-70
2023/11/04 03:43:39;;;;;;;15.52;3.50;;;;;;;12.37;100.00;98201.13;5010333;28;20097;-70
2023/11/04 03:46:04;;;;;;;12.38;3.60;;;;;;;12.33;100.00;98195.47;5010177;28;20481;-70
2023/11/04 03:48:30;;;;;;;8.45;3.30;;;;;;;12.38;100.00;98191.94;5030248;28;20029;-70
2023/11/04 03:50:56;;;;;;;13.13;3.47;;;;;;;12.50;100.00;98186.25;5043142;28;20561;-70
2023/11/04 03:53:21;;;;;;;12.77;3.60;;;;;;;12.45;100.00;98181.69;5017436;28;20034;-70
2023/11/04 03:55:47;;;;;;;11.50;3.60;;;;;;;12.44;100.00;98170.06;5009153;28;20057;-70
2023/11/04 03:58:14;;;;;;;9.50;3.30;;;;;;;12.08;100.00;98118.16;5010269;28;20038;-70
2023/11/04 04:00:39;;;;;;;15.70;3.63;;;;;;;12.40;100.00;98173.63;5010247;28;20034;-71
2023/11/04 04:03:04;;;;;;;10.65;3.95;;;;;;;12.41;100.00;98176.03;5006609;28;20103;-70
2023/11/04 04:05:31;;;;;;;8.05;3.63;;;;;;;12.44;100.00;98188.16;4990274;28;20061;-70
2023/11/04 04:07:57;;;;;;;13.00;3.25;;;;;;;12.41;100.00;98180.59;4991724;28;20416;-70
2023/11/04 04:10:23;;;;;;;12.60;3.75;;;;;;;12.40;100.00;98177.09;4990631;28;20121;-70
2023/11/04 04:12:49;;;;;;;11.95;3.22;;;;;;;12.35;100.00;98174.44;4991895;28;20478;-70
2023/11/04 04:15:16;;;;;;;13.30;3.53;;;;;;;12.28;100.00;98165.00;5007683;28;20042;-70
2023/11/04 04:17:41;;;;;;;10.20;3.58;;;;;;;12.38;100.00;98165.81;4992178;28;20026;-70
2023/11/04 04:20:07;;;;;;;14.40;4.28;;;;;;;12.23;100.00;98147.78;5014071;28;20046;-71
2023/11/04 04:22:33;;;;;;;13.93;4.13;;;;;;;12.35;100.00;98158.28;5014887;28;20030;-71
2023/11/04 04:24:58;;;;;;;14.52;4.38;;;;;;;12.44;100.00;98161.97;4976803;28;20026;-71
2023/11/04 04:27:23;;;;;;;18.48;4.30;;;;;;;12.48;100.00;98167.63;4991858;28;20030;-70
2023/11/04 04:29:49;;;;;;;14.15;4.38;;;;;;;12.48;100.00;98166.81;4992707;28;20031;-70
2023/11/04 04:32:15;;;;;;;12.63;4.40;;;;;;;12.36;100.00;98167.16;4990339;28;20060;-70
2023/11/04 04:34:40;;;;;;;13.73;4.40;;;;;;;12.40;100.00;98158.22;4991199;28;20097;-70
2023/11/04 04:37:07;;;;;;;16.25;4.65;;;;;;;12.41;100.00;98165.22;5007609;28;20070;-70
2023/11/04 04:39:32;;;;;;;12.73;4.35;;;;;;;12.42;100.00;98166.06;4994210;28;20039;-70
2023/11/04 04:41:58;;;;;;;13.05;4.63;;;;;;;12.43;100.00;98156.88;4994706;28;20034;-71
2023/11/04 04:44:23;;;;;;;16.13;5.20;;;;;;;12.44;100.00;98163.88;4995440;28;20077;-70
2023/11/04 04:46:48;;;;;;;15.07;5.00;;;;;;;12.33;100.00;98149.63;4993930;28;20117;-71
2023/11/04 04:49:14;;;;;;;15.48;4.40;;;;;;;12.36;100.00;98145.59;4994490;28;20524;-70
2023/11/04 04:51:39;;;;;;;13.02;4.78;;;;;;;12.37;100.00;98161.47;4995068;28;20033;-70
2023/11/04 04:54:05;;;;;;;10.73;4.47;;;;;;;12.37;100.00;98160.69;4978240;28;20129;-70
2023/11/04 04:56:30;;;;;;;12.30;4.65;;;;;;;12.34;100.00;98150.44;4995386;28;20034;-70
2023/11/04 04:58:56;;;;;;;15.95;4.10;;;;;;;12.30;100.00;98152.88;5013320;28;20026;-71
2023/11/04 05:01:22;;;;;;;12.75;4.45;;;;;;;12.36;100.00;98154.47;5000791;28;20021;-70
2023/11/04 05:03:48;;;;;;;18.42;4.40;;;;;;;12.34;100.00;98151.25;5028270;28;20477;-70
2023/11/04 05:06:14;;;;;;;14.07;4.65;;;;;;;12.35;100.00;98143.94;4999148;28;20018;-70
2023/11/04 05:08:40;;;;;;;14.40;4.85;;;;;;;12.39;100.00;98153.94;5012392;28;20064;-71
2023/11/04 05:11:09;;;;;;;16.00;4.72;;;;;;;12.38;100.00;98154.19;4979218;28;20034;-70
2023/11/04 05:13:36;;;;;;;17.50;5.50;;;;;;;12.41;100.00;98148.25;4997308;28;20031;-70
2023/11/04 05:16:01;;;;;;;11.85;4.85;;;;;;;12.43;100.00;98152.28;4994045;28;20042;-71
2023/11/04 05:18:27;;;;;;;17.65;5.32;;;;;;;12.45;100.00;98152.03;4995002;28;20034;-70
2023/11/04 05:20:52;;;;;;;16.73;4.75;;;;;;;12.42;100.00;98133.69;4993710;28;20034;-70
2023/11/04 05:23:18;;;;;;;18.25;5.22;;;;;;;12.44;100.00;98128.81;4994997;28;20039;-70
2023/11/04 05:25:44;;;;;;;16.02;4.65;;;;;;;12.57;100.00;98152.50;4976550;28;20072;-70
2023/11/04 05:28:09;;;;;;;15.13;4.65;;;;;;;12.53;100.00;98145.25;4994896;28;20034;-71
2023/11/04 05:30:35;;;;;;;18.05;4.90;;;;;;;12.58;100.00;98151.44;5009495;28;20032;-70
2023/11/04 05:33:00;;;;;;;13.30;4.40;;;;;;;12.60;100.00;98140.34;4993316;28;20054;-70
2023/11/04 05:35:26;;;;;;;13.98;4.57;;;;;;;12.36;100.00;98124.81;4992896;28;20090;-70
2023/11/04 05:37:52;;;;;;;12.63;4.63;;;;;;;12.43;100.00;98125.31;4994835;28;20026;-70
2023/11/04 05:40:18;;;;;;;15.25;4.93;;;;;;;12.61;100.00;98142.75;4993302;28;20022;-70
2023/11/04 05:42:44;;;;;;;18.42;5.75;;;;;;;12.63;100.00;98137.91;4993407;28;20069;-71
2023/11/04 05:45:09;;;;;;;17.38;5.57;;;;;;;12.64;100.00;98136.00;4993189;28;20059;-70
2023/11/04 05:47:35;;;;;;;17.35;5.32;;;;;;;12.69;100.00;98136.00;4994292;28;20034;-71
2023/11/04 05:50:02;;;;;;;15.95;6.13;;;;;;;12.68;100.00;98140.59;5008005;28;20051;-71
2023/11/04 05:52:27;;;;;;;17.27;6.03;;;;;;;12.71;100.00;98141.91;4993956;28;20052;-71
2023/11/04 05:54:53;;;;;;;17.33;5.70;;;;;;;12.69;100.00;98142.19;5009479;28;20557;-71
2023/11/04 05:57:19;;;;;;;21.55;6.38;;;;;;;12.65;100.00;98140.34;4994445;28;20026;-71
2023/11/04 05:59:45;;;;;;;16.60;5.88;;;;;;;12.54;100.00;98133.34;5009730;28;20037;-70
2023/11/04 06:02:12;;;;;;;21.52;6.10;;;;;;;12.61;100.00;98144.66;5011205;28;20677;-70
2023/11/04 06:04:38;;;;;;;15.77;5.63;;;;;;;12.60;100.00;98140.34;5012140;28;20516;-71
2023/11/04 06:07:03;;;;;;;17.65;5.55;;;;;;;12.63;100.00;98132.50;5013580;28;20061;-70
2023/11/04 06:09:31;;;;;;;19.67;6.38;;;;;;;12.65;100.00;98132.25;5011924;28;20041;-71
2023/11/04 06:11:57;;;;;;;18.08;5.95;;;;;;;12.63;100.00;98135.19;5013946;28;20281;-70
2023/11/04 06:14:23;;;;;;;23.48;6.22;;;;;;;12.54;100.00;98126.06;5013596;28;20648;-71
2023/11/04 06:16:48;;;;;;;21.70;6.05;;;;;;;12.52;100.00;98120.16;5013056;28;20045;-70
2023/11/04 06:19:13;;;;;;;21.00;6.30;;;;;;;12.69;100.00;98134.09;5018645;28;20089;-71
2023/11/04 06:21:39;;;;;;;23.90;6.57;;;;;;;12.72;100.00;98140.03;5028823;28;20026;-70
2023/11/04 06:24:04;;;;;;;19.85;6.03;;;;;;;12.71;100.00;98141.91;5012376;28;20033;-71
2023/11/04 06:26:30;;;;;;;21.98;6.72;;;;;;;12.68;100.00;98142.44;5013032;28;20030;-71
2023/11/04 06:28:55;;;;;;;18.00;6.45;;;;;;;12.66;100.00;98139.25;4995372;28;20556;-70
2023/11/04 06:31:22;;;;;;;18.40;6.63;;;;;;;12.69;100.00;98134.09;5010806;28;20038;-70
2023/11/04 06:33:47;;;;;;;21.92;6.82;;;;;;;12.75;100.00;98142.16;5011515;28;20049;-70
2023/11/04 06:36:14;;;;;;;18.38;6.43;;;;;;;12.76;100.00;98139.19;5026314;28;20112;-70
2023/11/04 06:38:40;;;;;;;18.83;6.53;;;;;;;12.77;100.00;98129.19;5012511;28;20026;-70
2023/11/04 06:41:16;;;;;;;20.63;6.40;;;;;;;12.81;100.00;98131.03;5028723;28;20377;-71
2023/11/04 06:43:46;;;;;;;25.67;6.43;;;;;;;12.81;100.00;98135.63;5013357;28;20034;-70
2023/11/04 06:46:12;;;;;;;22.05;6.15;;;;;;;12.81;100.00;98136.44;5012377;28;20029;-69
2023/11/04 06:48:38;;;;;;;17.75;5.90;;;;;;;12.84;100.00;98135.88;5014451;28;20038;-70
2023/11/04 06:51:06;;;;;;;15.30;5.78;;;;;;;12.70;100.00;98121.41;5028594;28;20040;-70
2023/11/04 06:53:32;;;;;;;20.45;5.80;;;;;;;12.78;100.00;98137.03;5012969;28;20029;-68
2023/11/04 06:55:59;;;;;;;16.67;6.10;;;;;;;12.68;100.00;98126.25;5012342;28;20049;-68
2023/11/04 06:58:29;;;;;;;19.63;5.68;;;;;;;12.83;100.00;98133.47;5027780;28;20042;-70
2023/11/04 07:00:55;;;;;;;18.63;5.70;;;;;;;12.68;100.00;98108.22;5010689;28;20030;-69
2023/11/04 07:03:21;;;;;;;19.35;6.70;;;;;;;12.84;100.00;98135.88;5011253;28;20041;-68
2023/11/04 07:05:46;;;;;;;21.60;6.20;;;;;;;12.84;100.00;98135.09;5012117;28;20014;-68
2023/11/04 07:08:14;;;;;;;22.48;6.25;;;;;;;12.82;100.00;98129.97;5012611;28;20033;-67
2023/11/04 07:10:40;;;;;;;27.83;8.38;;;;;;;12.87;100.00;98131.81;5027470;28;20034;-70
2023/11/04 07:13:15;;;;;;;25.75;7.65;;;;;;;12.87;100.00;98134.53;5011208;28;20029;-68
2023/11/04 07:15:43;;;;;;;25.00;6.82;;;;;;;12.92;100.00;98129.13;5027384;28;20041;-71
2023/11/04 07:18:10;;;;;;;28.75;8.35;;;;;;;12.84;100.00;98098.09;5010673;28;20048;-70
2023/11/04 07:20:37;;;;;;;28.17;11.98;;;;;;;12.98;100.00;98111.81;5010455;28;20117;-71
2023/11/04 07:23:03;;;;;;;47.75;20.40;;;;;;;12.97;100.00;98120.97;5010676;28;20025;-69
2023/11/04 07:25:30;;;;;;;31.67;13.65;;;;;;;12.98;100.00;98116.38;5010423;28;20544;-70
2023/11/04 07:27:58;;;;;;;24.85;8.45;;;;;;;12.96;100.00;98111.25;5011318;28;20129;-70
2023/11/04 07:30:24;;;;;;;23.98;9.23;;;;;;;12.99;100.00;98113.41;5012942;28;20022;-70
2023/11/04 07:32:50;;;;;;;20.63;6.57;;;;;;;13.05;100.00;98111.47;5027817;28;20033;-70
2023/11/04 07:35:15;;;;;;;25.48;6.78;;;;;;;13.09;100.00;98107.13;5011815;28;20037;-70
2023/11/04 07:37:41;;;;;;;23.75;7.78;;;;;;;12.98;100.00;98109.09;5011154;28;20030;-71
2023/11/04 07:40:08;;;;;;;28.70;10.23;;;;;;;12.94;100.00;98119.63;5010976;28;20552;-72
2023/11/04 07:42:34;;;;;;;26.40;9.73;;;;;;;12.96;100.00;98110.47;5011008;28;20029;-69
2023/11/04 07:44:59;;;;;;;24.50;10.32;;;;;;;12.96;100.00;98108.56;5011923;28;20044;-69
2023/11/04 07:47:24;;;;;;;23.45;8.02;;;;;;;12.96;100.00;98105.06;5012303;28;20026;-69
2023/11/04 07:49:50;;;;;;;26.65;8.65;;;;;;;12.85;100.00;98088.13;5010270;28;20502;-69
2023/11/04 07:52:16;;;;;;;23.33;7.53;;;;;;;12.91;100.00;98103.19;5009709;28;20076;-69
2023/11/04 07:54:41;;;;;;;35.03;15.38;;;;;;;12.99;100.00;98101.81;5009599;28;20036;-69
2023/11/04 07:57:07;;;;;;;19.67;10.32;;;;;;;13.02;100.00;98103.94;5008452;28;20042;-69
2023/11/04 07:59:32;;;;;;;23.33;8.32;;;;;;;13.04;100.00;98107.94;5010439;28;20589;-69
2023/11/04 08:01:58;;;;;;;23.73;8.13;;;;;;;13.08;100.00;98103.63;5008513;28;20030;-69
2023/11/04 08:04:24;;;;;;;25.27;9.95;;;;;;;13.11;100.00;98107.63;5010272;28;20033;-69
2023/11/04 08:06:50;;;;;;;22.77;11.80;;;;;;;13.10;100.00;98089.84;5009929;28;20124;-69
2023/11/04 08:09:15;;;;;;;21.15;8.77;;;;;;;13.25;100.00;98105.16;5011393;28;20153;-70
2023/11/04 08:11:41;;;;;;;30.05;7.88;;;;;;;13.27;100.00;98111.84;5010699;28;20022;-70
2023/11/04 08:14:06;;;;;;;28.38;9.57;;;;;;;13.25;100.00;98102.44;5010679;28;20116;-70
2023/11/04 08:16:32;;;;;;;31.50;18.13;;;;;;;13.27;100.00;98111.06;5011671;28;20030;-70
2023/11/04 08:18:58;;;;;;;39.65;22.52;;;;;;;13.30;100.00;98105.09;5009990;28;20104;-70
2023/11/04 08:21:29;;;;;;;26.70;13.63;;;;;;;13.03;100.00;98092.06;5010962;28;20421;-70
2023/11/04 08:23:55;;;;;;;35.95;14.93;;;;;;;13.22;100.00;98106.47;5010103;28;20160;-70
2023/11/04 08:26:20;;;;;;;24.95;7.53;;;;;;;13.20;100.00;98107.84;5011725;28;20105;-70
2023/11/04 08:28:46;;;;;;;25.02;8.65;;;;;;;13.20;100.00;98108.66;5010098;28;20044;-70
2023/11/04 08:31:11;;;;;;;21.27;6.32;;;;;;;13.24;100.00;98101.63;5025780;28;20026;-70
2023/11/04 08:33:36;;;;;;;23.00;6.70;;;;;;;13.20;100.00;98105.16;5023224;28;20041;-70
2023/11/04 08:36:02;;;;;;;23.15;6.15;;;;;;;13.37;100.00;98108.28;5013612;28;20105;-69
2023/11/04 08:38:27;;;;;;;28.58;6.22;;;;;;;13.42;100.00;98100.13;5026201;28;20022;-70
2023/11/04 08:40:53;;;;;;;26.80;6.93;;;;;;;13.45;100.00;98109.56;5011874;28;20034;-70
2023/11/04 08:43:18;;;;;;;24.20;6.75;;;;;;;13.45;100.00;98109.56;5010770;28;20029;-70
2023/11/04 08:45:44;;;;;;;23.25;6.13;;;;;;;13.46;100.00;98105.78;5011050;28;20037;-69
2023/11/04 08:48:10;;;;;;;22.05;7.30;;;;;;;13.48;100.00;98085.50;5010836;28;20495;-70
2023/11/04 08:50:35;;;;;;;27.20;8.70;;;;;;;13.53;100.00;98084.63;5010657;28;20390;-70
2023/11/04 08:53:01;;;;;;;28.67;6.85;;;;;;;13.61;100.00;98102.94;5009716;28;20037;-69
2023/11/04 08:55:26;;;;;;;24.23;6.53;;;;;;;13.60;100.00;98104.81;5010870;28;20066;-69
2023/11/04 08:57:51;;;;;;;27.60;7.80;;;;;;;13.59;100.00;98097.81;5011060;28;20033;-70
2023/11/04 09:00:19;;;;;;;26.60;7.00;;;;;;;13.68;100.00;98108.00;5009857;28;20508;-70
2023/11/04 09:02:45;;;;;;;29.80;9.38;;;;;;;13.68;100.00;98100.72;5009643;28;20065;-70
2023/11/04 09:05:11;;;;;;;25.50;10.18;;;;;;;13.64;100.00;98083.44;5013233;28;20105;-70
2023/11/04 09:07:36;;;;;;;28.25;9.07;;;;;;;13.79;100.00;98102.19;5013120;28;20495;-69
2023/11/04 09:10:01;;;;;;;36.60;11.00;;;;;;;13.83;100.00;98099.72;5019574;28;20029;-70
2023/11/04 09:12:27;;;;;;;22.35;6.50;;;;;;;13.85;100.00;98097.56;5011249;28;20121;-70
2023/11/04 09:14:53;;;;;;;34.83;8.05;;;;;;;13.90;100.00;98097.50;5010380;28;20026;-69
2023/11/04 09:17:18;;;;;;;21.27;6.68;;;;;;;14.00;100.00;98100.06;5009985;28;20061;-69
2023/11/04 09:19:43;;;;;;;25.52;5.72;;;;;;;14.08;100.00;98098.66;5009278;28;20033;-69
2023/11/04 09:22:09;;;;;;;24.67;6.28;;;;;;;14.16;100.00;98097.22;5009895;28;20374;-69
2023/11/04 09:24:35;;;;;;;20.35;4.70;;;;;;;14.16;100.00;98099.91;5012889;28;20051;-69
2023/11/04 09:27:01;;;;;;;20.80;4.80;;;;;;;14.21;100.00;98108.78;5014894;28;20438;-69
2023/11/04 09:29:26;;;;;;;24.48;4.55;;;;;;;14.11;100.00;98100.78;5012337;28;20041;-69
2023/11/04 09:31:52;;;;;;;21.05;4.30;;;;;;;14.04;100.00;98103.03;5023393;28;20038;-70
2023/11/04 09:34:18;;;;;;;27.23;4.80;;;;;;;13.90;100.00;98111.00;5012511;28;20061;-70
2023/11/04 09:36:43;;;;;;;22.40;3.75;;;;;;;13.98;100.00;98109.59;5012580;28;20060;-70
2023/11/04 09:39:09;;;;;;;21.48;3.97;;;;;;;14.04;100.00;98106.53;5009460;28;20037;-70
2023/11/04 09:41:36;;;;;;;23.90;3.70;;;;;;;14.03;100.00;98107.63;5012643;28;20024;-70
2023/11/04 09:44:03;;;;;;;22.63;3.13;;;;;;;13.89;100.00;98106.69;5014145;28;20065;-70
2023/11/04 09:46:29;;;;;;;20.83;3.58;;;;;;;14.01;100.00;98109.81;5010562;28;20018;-69
2023/11/04 09:48:54;;;;;;;27.95;3.88;;;;;;;14.09;100.00;98100.25;5012276;28;20048;-71
2023/11/04 09:51:21;;;;;;;24.95;3.45;;;;;;;14.22;100.00;98085.25;5015092;28;20116;-71
2023/11/04 09:53:56;;;;;;;16.42;2.67;;;;;;;14.34;100.00;98101.88;5014751;28;20116;-71
2023/11/04 09:56:24;;;;;;;17.90;3.08;;;;;;;14.37;100.00;98097.75;5014019;28;20034;-71
2023/11/04 09:58:50;;;;;;;18.40;3.08;;;;;;;14.41;100.00;98101.50;5013848;28;20030;-70
2023/11/04 10:01:18;;;;;;;15.82;3.63;;;;;;;14.32;100.00;98093.22;5028980;28;20038;-71
2023/11/04 10:03:45;;;;;;;17.88;3.63;;;;;;;14.31;100.00;98092.41;5014185;28;20435;-71
2023/11/04 10:06:11;;;;;;;16.52;2.83;;;;;;;14.32;100.00;98094.03;5014048;28;20441;-71
2023/11/04 10:08:36;;;;;;;20.88;2.78;;;;;;;14.36;100.00;98094.25;5011016;28;20117;-71
2023/11/04 10:11:02;;;;;;;14.15;2.90;;;;;;;14.38;100.00;98086.66;5010688;28;20504;-71
2023/11/04 10:13:27;;;;;;;16.95;3.00;;;;;;;14.33;100.00;98092.13;5011840;28;20037;-71
2023/11/04 10:15:53;;;;;;;15.52;2.50;;;;;;;14.31;100.00;98091.63;5010760;28;20029;-71
2023/11/04 10:18:18;;;;;;;16.60;2.63;;;;;;;14.27;100.00;98077.03;5010547;28;20038;-70
2023/11/04 10:20:44;;;;;;;20.50;2.92;;;;;;;14.22;100.00;98067.09;5018657;28;20060;-71
2023/11/04 10:23:09;;;;;;;14.00;3.17;;;;;;;14.38;100.00;98075.84;5030156;28;20048;-71
2023/11/04 10:25:34;;;;;;;24.95;3.63;;;;;;;14.37;100.00;98073.41;5016330;28;20171;-71
2023/11/04 10:28:00;;;;;;;21.67;3.35;;;;;;;14.28;100.00;98070.56;5013776;28;20061;-71
2023/11/04 10:30:25;;;;;;;15.57;2.88;;;;;;;14.39;100.00;98076.63;5011922;28;20060;-71
2023/11/04 10:32:53;;;;;;;16.63;2.95;;;;;;;14.48;100.00;98077.59;5012980;28;20030;-71
2023/11/04 10:35:19;;;;;;;15.88;2.67;;;;;;;14.55;100.00;98078.88;5010904;28;20018;-71
2023/11/04 10:37:50;;;;;;;16.38;2.65;;;;;;;14.64;100.00;98079.03;5013010;28;20038;-70
2023/11/04 10:40:16;;;;;;;16.98;2.97;;;;;;;14.58;100.00;98074.78;5013416;28;20033;-71
2023/11/04 10:42:48;;;;;;;16.38;2.95;;;;;;;14.39;100.00;98069.31;5011710;28;20075;-71
2023/11/04 10:45:18;;;;;;;20.50;3.47;;;;;;;14.38;100.00;98092.06;5012902;28;20017;-70
2023/11/04 10:47:55;;;;;;;17.90;2.70;;;;;;;14.18;100.00;98062.59;5013107;28;20033;-71
2023/11/04 10:50:36;;;;;;;19.95;3.15;;;;;;;14.36;100.00;98082.63;5012629;28;20096;-70
2023/11/04 10:53:38;;;;;;;18.48;2.70;;;;;;;14.29;100.00;98080.28;5028075;28;20072;-70
2023/11/04 10:56:11;;;;;;;18.48;2.80;;;;;;;14.17;100.00;98083.41;5013006;28;20061;-71
2023/11/04 10:59:02;;;;;;;22.55;3.42;;;;;;;14.07;100.00;98087.03;5028315;28;20037;-71
2023/11/04 11:01:30;;;;;;;23.05;3.55;;;;;;;14.05;100.00;98064.09;5012679;28;20649;-70
2023/11/04 11:03:56;;;;;;;17.20;3.33;;;;;;;13.83;100.00;98032.97;5011952;28;20033;-70
2023/11/04 11:06:21;;;;;;;15.35;3.20;;;;;;;14.18;100.00;98081.50;4994784;28;20072;-70
2023/11/04 11:08:47;;;;;;;16.85;2.55;;;;;;;14.20;100.00;98079.31;5011462;28;20034;-70
2023/11/04 11:11:27;;;;;;;16.38;3.15;;;;;;;14.08;100.00;98083.22;5012617;28;20029;-72
2023/11/04 11:13:58;;;;;;;16.80;3.00;;;;;;;14.08;100.00;98085.13;5012655;28;20022;-69